Time;durP1;ratioP1;P1;durP2;ratioP2;P2;SDS_P1;SDS_P2;PMS_P1;PMS_P2;Temp;Humidity;BMP_temperature;BMP_pressure;BME280_temperature;BME280_humidity;BME280_pressure;Samples;Min_cycle;Max_cycle;Signal;HPM_P1;HPM_P2
2022/10/23 00:00:20;;;;;;;552.60;517.37;;;12.00;35.10;;;;;;4973790;28;20204;-69
2022/10/23 00:02:52;;;;;;;452.70;426.30;;;11.90;35.40;;;;;;4973398;28;20179;-68
2022/10/23 00:05:19;;;;;;;541.67;508.33;;;11.70;37.60;;;;;;4973900;28;20590;-67
2022/10/23 00:07:44;;;;;;;535.67;503.17;;;11.70;37.10;;;;;;4973579;28;20466;-68
2022/10/23 00:10:10;;;;;;;619.40;581.67;;;11.70;37.50;;;;;;4973636;28;20960;-67
2022/10/23 00:12:35;;;;;;;575.13;538.40;;;11.50;38.00;;;;;;4973284;28;20189;-68
2022/10/23 00:15:01;;;;;;;609.50;571.17;;;11.40;39.70;;;;;;4973554;28;20222;-68
2022/10/23 00:17:26;;;;;;;532.10;501.37;;;11.40;40.00;;;;;;4973443;28;20212;-67
2022/10/23 00:19:52;;;;;;;660.67;619.07;;;11.30;41.10;;;;;;4973374;28;20186;-68
2022/10/23 00:22:17;;;;;;;589.77;551.00;;;11.20;40.30;;;;;;4973424;28;20188;-69
2022/10/23 00:24:43;;;;;;;544.03;511.27;;;11.10;41.20;;;;;;4972072;28;20224;-68
2022/10/23 00:27:08;;;;;;;582.27;547.47;;;11.00;42.50;;;;;;4973453;28;20181;-67
2022/10/23 00:29:34;;;;;;;529.37;498.73;;;11.00;42.20;;;;;;4972291;28;20296;-68
2022/10/23 00:31:59;;;;;;;460.03;434.03;;;11.10;42.30;;;;;;4972856;28;20198;-67
2022/10/23 00:34:25;;;;;;;459.83;433.47;;;11.10;42.30;;;;;;4973280;28;20185;-67
2022/10/23 00:36:50;;;;;;;496.43;467.30;;;11.00;42.60;;;;;;4973281;28;20262;-67
2022/10/23 00:39:16;;;;;;;500.70;471.53;;;10.90;42.10;;;;;;4973309;28;20179;-69
2022/10/23 00:41:41;;;;;;;620.90;586.27;;;10.80;43.10;;;;;;4973014;28;20215;-68
2022/10/23 00:44:30;;;;;;;422.33;400.00;;;10.80;43.50;;;;;;4973532;28;20264;-68
2022/10/23 00:46:57;;;;;;;518.07;487.63;;;10.70;44.60;;;;;;4973081;28;20214;-68
2022/10/23 00:49:24;;;;;;;473.57;447.47;;;10.60;44.00;;;;;;4973139;28;20467;-68
2022/10/23 00:51:52;;;;;;;471.37;442.17;;;10.60;44.70;;;;;;4972653;28;20532;-68
2022/10/23 00:54:22;;;;;;;501.17;470.30;;;10.50;44.90;;;;;;4973031;28;20512;-69
2022/10/23 00:56:48;;;;;;;448.80;422.67;;;10.50;45.40;;;;;;4973044;28;20460;-67
2022/10/23 00:59:14;;;;;;;552.20;521.13;;;10.50;46.40;;;;;;4973027;28;20412;-68
2022/10/23 01:01:40;;;;;;;449.00;421.70;;;10.50;45.90;;;;;;4975612;28;20431;-69
2022/10/23 01:04:07;;;;;;;582.20;545.23;;;10.50;46.60;;;;;;4977059;28;20421;-68
2022/10/23 01:06:32;;;;;;;442.17;418.07;;;10.60;46.00;;;;;;4977070;28;20767;-68
2022/10/23 01:09:27;;;;;;;469.70;442.97;;;10.60;45.30;;;;;;4976959;28;20459;-68
2022/10/23 01:11:59;;;;;;;473.73;443.63;;;10.50;45.70;;;;;;4976639;28;20223;-69
2022/10/23 01:14:46;;;;;;;578.40;543.27;;;10.40;46.00;;;;;;4976785;28;20423;-68
2022/10/23 01:17:20;;;;;;;436.53;411.93;;;10.50;46.30;;;;;;4976931;28;20416;-68
2022/10/23 01:20:07;;;;;;;509.93;481.97;;;10.50;46.20;;;;;;4976724;28;20469;-68
2022/10/23 01:22:52;;;;;;;445.70;422.00;;;10.40;45.60;;;;;;4976478;28;20407;-66
2022/10/23 01:25:42;;;;;;;333.83;316.00;;;10.30;46.10;;;;;;4975448;28;20427;-69
2022/10/23 01:28:19;;;;;;;426.20;402.23;;;10.30;46.20;;;;;;4976594;28;21033;-68
2022/10/23 01:30:47;;;;;;;428.40;402.87;;;10.30;46.60;;;;;;4974975;28;20460;-66
2022/10/23 01:33:20;;;;;;;396.77;374.97;;;10.20;47.90;;;;;;4976489;28;20423;-66
2022/10/23 01:35:52;;;;;;;502.37;471.93;;;10.20;48.30;;;;;;4976793;28;20860;-67
2022/10/23 01:38:24;;;;;;;388.47;366.10;;;10.20;48.80;;;;;;4976407;28;20424;-67
2022/10/23 01:41:01;;;;;;;420.73;394.43;;;10.10;49.60;;;;;;4975980;28;20448;-67
2022/10/23 01:43:37;;;;;;;446.80;420.43;;;10.10;50.30;;;;;;4976373;28;20422;-67
2022/10/23 01:46:07;;;;;;;474.47;445.73;;;10.20;50.30;;;;;;4976257;28;20503;-68
2022/10/23 01:48:35;;;;;;;641.03;600.23;;;10.20;49.40;;;;;;4976200;28;20877;-68
2022/10/23 01:51:05;;;;;;;442.53;417.90;;;10.10;49.00;;;;;;4976170;28;20448;-68
2022/10/23 01:53:37;;;;;;;412.10;387.40;;;10.10;49.20;;;;;;4976221;28;20412;-68
2022/10/23 01:56:05;;;;;;;515.17;485.40;;;10.20;49.40;;;;;;4976174;28;20491;-68
2022/10/23 01:58:33;;;;;;;518.27;489.07;;;10.20;48.00;;;;;;4975899;28;20416;-68
2022/10/23 02:01:03;;;;;;;366.93;347.63;;;10.20;47.10;;;;;;4974287;28;20447;-68
2022/10/23 02:03:32;;;;;;;435.47;406.73;;;10.10;47.30;;;;;;4975927;28;20412;-68
2022/10/23 02:05:57;;;;;;;397.87;373.50;;;10.00;47.90;;;;;;4975955;28;20818;-68
2022/10/23 02:08:24;;;;;;;489.53;460.33;;;10.00;48.60;;;;;;4976350;28;20459;-67
2022/10/23 02:11:12;;;;;;;456.67;428.17;;;10.00;49.70;;;;;;4976415;28;20262;-68
2022/10/23 02:13:45;;;;;;;383.87;363.07;;;10.10;48.90;;;;;;4975699;28;20466;-67
2022/10/23 02:16:22;;;;;;;490.17;458.43;;;10.00;48.10;;;;;;4976001;28;20471;-67
2022/10/23 02:19:04;;;;;;;509.33;479.53;;;10.00;49.30;;;;;;4975739;28;20440;-67
2022/10/23 02:21:51;;;;;;;427.50;405.63;;;10.10;48.10;;;;;;4975418;28;20937;-67
2022/10/23 02:24:24;;;;;;;388.43;366.90;;;10.00;49.20;;;;;;4964713;28;20819;-68
2022/10/23 02:26:56;;;;;;;639.47;595.87;;;10.00;48.80;;;;;;4975684;28;20432;-68
2022/10/23 02:29:33;;;;;;;531.90;500.87;;;10.00;48.60;;;;;;4975408;28;20464;-69
2022/10/23 02:32:00;;;;;;;463.60;437.17;;;10.00;48.60;;;;;;4973881;28;20937;-68
2022/10/23 02:34:26;;;;;;;419.63;395.87;;;10.00;48.60;;;;;;4975452;28;20467;-68
2022/10/23 02:36:51;;;;;;;386.57;365.33;;;10.10;49.00;;;;;;4975352;28;20496;-68
2022/10/23 02:39:17;;;;;;;553.60;518.37;;;10.10;48.60;;;;;;4975321;28;20196;-68
2022/10/23 02:41:53;;;;;;;496.53;469.17;;;10.00;49.10;;;;;;4974941;28;20286;-68
2022/10/23 02:44:50;;;;;;;548.60;516.77;;;10.00;49.30;;;;;;4973966;28;20436;-68
2022/10/23 02:48:00;;;;;;;524.90;492.60;;;10.00;49.40;;;;;;4963084;28;20572;-68
2022/10/23 02:50:45;;;;;;;625.47;585.37;;;10.00;49.40;;;;;;4953417;29;20473;-68
2022/10/23 02:53:22;;;;;;;536.93;504.80;;;10.00;49.10;;;;;;4974792;28;20753;-67
2022/10/23 02:56:07;;;;;;;430.07;405.83;;;10.00;49.30;;;;;;4975017;28;20404;-68
2022/10/23 02:58:55;;;;;;;447.87;422.57;;;10.00;49.10;;;;;;4974993;28;20452;-68
2022/10/23 03:01:26;;;;;;;385.53;364.63;;;10.10;49.70;;;;;;4974632;28;20466;-68
2022/10/23 03:03:58;;;;;;;435.93;410.93;;;10.10;49.00;;;;;;4974924;28;20404;-68
2022/10/23 03:06:24;;;;;;;529.67;496.33;;;10.10;49.60;;;;;;4973612;28;20507;-68
2022/10/23 03:08:58;;;;;;;533.63;501.17;;;10.10;48.70;;;;;;4974682;28;20491;-68
2022/10/23 03:11:24;;;;;;;514.80;485.77;;;10.20;48.80;;;;;;4974570;28;20427;-69
2022/10/23 03:13:50;;;;;;;462.13;432.97;;;10.20;47.90;;;;;;4974595;28;20544;-68
2022/10/23 03:16:15;;;;;;;483.17;454.17;;;10.20;48.30;;;;;;4974596;28;20208;-68
2022/10/23 03:18:41;;;;;;;471.10;442.17;;;10.30;47.80;;;;;;4974506;28;20181;-68
2022/10/23 03:21:07;;;;;;;596.53;556.50;;;10.30;47.50;;;;;;4974163;28;20197;-69
2022/10/23 03:23:32;;;;;;;517.03;485.43;;;10.30;48.30;;;;;;4974122;28;20253;-68
2022/10/23 03:25:58;;;;;;;561.13;528.30;;;10.10;48.30;;;;;;4973080;28;20428;-67
2022/10/23 03:28:23;;;;;;;424.03;400.13;;;10.20;49.90;;;;;;4974245;28;20545;-68
2022/10/23 03:30:49;;;;;;;532.10;498.87;;;10.10;48.90;;;;;;4973982;28;20195;-68
2022/10/23 03:33:15;;;;;;;482.40;454.93;;;10.10;50.40;;;;;;4974276;28;20189;-69
2022/10/23 03:35:40;;;;;;;523.53;493.03;;;10.10;49.30;;;;;;4974269;28;20247;-67
2022/10/23 03:38:06;;;;;;;473.00;439.60;;;10.10;50.10;;;;;;4973015;28;20192;-68
2022/10/23 03:40:31;;;;;;;572.23;533.70;;;10.10;50.80;;;;;;4974073;28;20201;-68
2022/10/23 03:42:57;;;;;;;513.40;482.87;;;10.10;48.90;;;;;;4973833;28;20182;-68
2022/10/23 03:45:23;;;;;;;600.03;560.17;;;10.20;48.70;;;;;;4974046;28;20179;-68
2022/10/23 03:47:50;;;;;;;537.30;504.90;;;10.20;48.20;;;;;;4973912;28;20464;-67
2022/10/23 03:50:17;;;;;;;428.93;402.73;;;10.10;47.10;;;;;;4973825;28;20208;-69
2022/10/23 03:52:43;;;;;;;455.30;428.60;;;10.00;48.00;;;;;;4973734;28;20926;-69
2022/10/23 03:55:08;;;;;;;402.03;378.03;;;9.90;49.10;;;;;;4973975;28;20643;-68
2022/10/23 03:57:34;;;;;;;508.07;475.27;;;9.90;50.10;;;;;;4973858;28;20790;-68
2022/10/23 03:59:59;;;;;;;317.60;299.40;;;9.90;50.10;;;;;;4973838;28;20251;-68
2022/10/23 04:02:25;;;;;;;596.37;555.67;;;9.80;50.90;;;;;;4973473;28;20228;-68
2022/10/23 04:04:50;;;;;;;582.60;547.50;;;9.80;50.00;;;;;;4973778;28;20174;-68
2022/10/23 04:07:16;;;;;;;672.73;631.80;;;9.70;50.00;;;;;;4973789;28;20178;-69
2022/10/23 04:09:41;;;;;;;697.37;650.83;;;9.70;50.10;;;;;;4973557;28;20292;-67
2022/10/23 04:12:08;;;;;;;425.50;398.57;;;9.70;50.70;;;;;;4973629;28;20259;-68
2022/10/23 04:14:33;;;;;;;525.13;490.87;;;9.70;50.50;;;;;;4973639;28;20556;-67
2022/10/23 04:16:59;;;;;;;538.10;505.70;;;9.70;50.70;;;;;;4973448;28;20508;-67
2022/10/23 04:19:25;;;;;;;275.97;259.77;;;9.50;51.90;;;;;;4973778;28;20812;-68
2022/10/23 04:21:50;;;;;;;402.27;378.57;;;9.60;52.00;;;;;;4973204;28;20197;-68
2022/10/23 04:24:16;;;;;;;575.30;539.00;;;9.50;51.90;;;;;;4973410;28;20654;-67
2022/10/23 04:26:41;;;;;;;513.43;479.77;;;9.60;51.90;;;;;;4973495;28;20272;-68
2022/10/23 04:29:07;;;;;;;484.53;455.40;;;9.60;52.00;;;;;;4973506;28;20220;-68
2022/10/23 04:31:32;;;;;;;399.67;375.93;;;9.70;51.00;;;;;;4972923;28;20193;-68
2022/10/23 04:33:58;;;;;;;636.17;595.33;;;9.60;51.50;;;;;;4973380;28;20243;-68
2022/10/23 04:36:23;;;;;;;399.30;375.83;;;9.60;51.60;;;;;;4973225;28;20187;-68
2022/10/23 04:38:49;;;;;;;327.30;308.30;;;9.70;52.00;;;;;;4973777;28;20177;-68
2022/10/23 04:41:14;;;;;;;733.50;685.70;;;9.70;52.10;;;;;;4973331;28;20201;-67
2022/10/23 04:43:40;;;;;;;347.00;324.87;;;9.70;51.50;;;;;;4973667;28;20232;-67
2022/10/23 04:46:06;;;;;;;539.70;504.70;;;9.70;52.00;;;;;;4973210;28;20185;-69
2022/10/23 04:48:32;;;;;;;500.77;470.43;;;9.80;52.10;;;;;;4973070;28;20264;-68
2022/10/23 04:51:00;;;;;;;759.03;705.40;;;9.80;51.60;;;;;;4971387;28;20873;-68
2022/10/23 04:53:27;;;;;;;402.40;377.67;;;9.70;51.50;;;;;;4973121;28;20178;-68
2022/10/23 04:55:54;;;;;;;352.00;330.77;;;9.80;51.60;;;;;;4973064;28;20451;-68
2022/10/23 04:58:20;;;;;;;385.63;362.10;;;9.80;51.70;;;;;;4973063;28;20424;-68
2022/10/23 05:00:47;;;;;;;316.87;296.70;;;9.80;52.10;;;;;;4972654;28;20443;-67
2022/10/23 05:03:13;;;;;;;637.47;597.97;;;9.90;50.90;;;;;;4972978;28;20424;-67
2022/10/23 05:05:39;;;;;;;328.73;308.37;;;9.90;50.90;;;;;;4973065;28;20420;-68
2022/10/23 05:08:05;;;;;;;418.60;389.30;;;9.90;52.20;;;;;;4972981;28;20982;-68
2022/10/23 05:10:31;;;;;;;483.17;452.47;;;9.90;51.10;;;;;;4972813;28;20444;-68
2022/10/23 05:12:56;;;;;;;448.90;416.87;;;9.90;51.00;;;;;;4972809;28;20173;-70
2022/10/23 05:15:22;;;;;;;728.73;678.83;;;9.90;51.20;;;;;;4972852;28;20197;-69
2022/10/23 05:17:51;;;;;;;370.20;347.13;;;10.00;48.90;;;;;;4972926;28;20209;-68
2022/10/23 05:20:21;;;;;;;456.53;424.80;;;10.00;49.30;;;;;;4972828;28;20722;-69
2022/10/23 05:22:50;;;;;;;613.07;573.50;;;10.00;50.10;;;;;;4972711;28;20421;-68
2022/10/23 05:25:16;;;;;;;717.17;670.10;;;9.90;49.70;;;;;;4972813;28;20448;-67
2022/10/23 05:27:41;;;;;;;566.40;529.93;;;9.90;50.50;;;;;;4972716;28;20412;-68
2022/10/23 05:30:07;;;;;;;591.23;553.03;;;9.80;51.60;;;;;;4972725;28;20726;-68
2022/10/23 05:32:34;;;;;;;480.57;451.30;;;9.80;50.80;;;;;;4972689;28;20179;-68
2022/10/23 05:35:05;;;;;;;531.10;498.57;;;9.80;51.30;;;;;;4972822;28;20443;-67
2022/10/23 05:37:31;;;;;;;692.53;644.93;;;9.90;51.50;;;;;;4972760;28;20416;-68
2022/10/23 05:39:57;;;;;;;362.70;340.33;;;9.90;51.20;;;;;;4972685;28;20415;-68
2022/10/23 05:42:22;;;;;;;316.40;296.60;;;9.90;51.50;;;;;;4972404;28;20780;-68
2022/10/23 05:44:48;;;;;;;585.63;551.83;;;10.00;50.60;;;;;;4972725;28;20654;-68
2022/10/23 05:47:13;;;;;;;668.63;627.53;;;10.00;50.30;;;;;;4974601;28;20189;-68
2022/10/23 05:49:39;;;;;;;468.97;438.33;;;10.00;50.50;;;;;;4974734;28;20208;-69
2022/10/23 05:52:05;;;;;;;471.03;444.53;;;10.00;51.30;;;;;;4975601;28;20193;-68
2022/10/23 05:54:30;;;;;;;400.60;375.17;;;10.00;51.20;;;;;;4976185;28;20543;-67
2022/10/23 05:56:56;;;;;;;445.57;417.53;;;10.10;52.40;;;;;;4974787;28;20173;-67
2022/10/23 05:59:22;;;;;;;365.13;342.20;;;10.20;50.90;;;;;;4976692;28;20188;-67
2022/10/23 06:01:47;;;;;;;335.27;314.73;;;10.20;51.50;;;;;;4975710;28;20550;-68
2022/10/23 06:04:13;;;;;;;583.87;543.80;;;10.30;51.60;;;;;;4976021;28;20618;-68
2022/10/23 06:06:38;;;;;;;660.80;617.03;;;10.30;50.80;;;;;;4974824;28;20185;-68
2022/10/23 06:09:04;;;;;;;529.03;492.20;;;10.20;50.70;;;;;;4975927;28;20710;-68
2022/10/23 06:11:29;;;;;;;398.90;375.27;;;10.20;51.70;;;;;;4980720;28;20194;-68
2022/10/23 06:13:55;;;;;;;340.43;319.00;;;10.20;51.50;;;;;;4976076;28;20174;-68
2022/10/23 06:16:25;;;;;;;460.43;430.93;;;10.20;51.50;;;;;;4955214;29;20648;-68
2022/10/23 06:18:51;;;;;;;610.80;568.93;;;10.40;51.70;;;;;;4956500;29;20545;-68
2022/10/23 06:21:17;;;;;;;304.37;286.03;;;10.40;51.20;;;;;;4955995;29;20437;-68
2022/10/23 06:23:44;;;;;;;554.30;516.67;;;10.40;51.40;;;;;;4956245;28;20182;-68
2022/10/23 06:26:11;;;;;;;621.47;585.37;;;10.40;51.70;;;;;;4957667;28;20414;-68
2022/10/23 06:28:37;;;;;;;544.87;510.20;;;10.40;51.70;;;;;;4974147;28;20515;-68
2022/10/23 06:31:07;;;;;;;505.10;474.70;;;10.40;51.70;;;;;;4975191;28;20520;-68
2022/10/23 06:33:33;;;;;;;697.90;650.13;;;10.50;51.80;;;;;;4975424;28;20180;-66
2022/10/23 06:35:59;;;;;;;622.57;582.03;;;10.50;50.70;;;;;;4975812;28;20432;-66
2022/10/23 06:38:25;;;;;;;569.63;532.17;;;10.60;50.60;;;;;;4975255;28;20515;-66
2022/10/23 06:40:56;;;;;;;693.93;649.30;;;10.60;50.80;;;;;;4974887;28;20208;-67
2022/10/23 06:43:22;;;;;;;352.43;330.77;;;10.70;50.80;;;;;;4973996;28;20659;-68
2022/10/23 06:45:48;;;;;;;530.73;495.07;;;10.80;50.30;;;;;;4975429;28;20421;-68
2022/10/23 06:48:14;;;;;;;571.37;531.37;;;10.90;47.30;;;;;;4975416;28;20469;-69
2022/10/23 06:50:39;;;;;;;694.27;646.33;;;11.10;46.70;;;;;;4974946;28;20864;-69
2022/10/23 06:53:05;;;;;;;797.87;747.50;;;11.10;45.00;;;;;;4974752;28;20415;-69
2022/10/23 06:55:32;;;;;;;473.37;440.73;;;11.10;45.30;;;;;;4973844;28;20189;-68
2022/10/23 06:57:57;;;;;;;612.33;569.00;;;11.10;45.10;;;;;;4974181;28;20417;-68
2022/10/23 07:00:24;;;;;;;671.00;622.87;;;11.10;43.80;;;;;;4974860;28;20453;-68
2022/10/23 07:02:50;;;;;;;857.33;799.30;;;11.20;45.00;;;;;;4971938;28;20418;-68
2022/10/23 07:05:16;;;;;;;641.90;598.00;;;11.30;45.50;;;;;;4955574;28;20453;-68
2022/10/23 07:07:41;;;;;;;522.37;484.77;;;11.40;42.50;;;;;;4953966;29;20458;-70
2022/10/23 07:10:07;;;;;;;315.53;292.80;;;11.60;40.30;;;;;;4955386;28;20466;-68
2022/10/23 07:12:33;;;;;;;786.30;732.10;;;11.70;38.90;;;;;;4972010;28;20181;-68
2022/10/23 07:14:58;;;;;;;821.80;765.37;;;11.80;37.80;;;;;;4973010;28;20738;-68
2022/10/23 07:17:24;;;;;;;559.97;521.13;;;11.80;38.90;;;;;;4974506;28;20183;-68
2022/10/23 07:19:49;;;;;;;811.00;753.73;;;11.90;37.90;;;;;;4973148;28;20177;-68
2022/10/23 07:22:15;;;;;;;809.27;753.10;;;11.90;38.50;;;;;;4974220;28;20328;-68
2022/10/23 07:24:40;;;;;;;878.93;816.50;;;11.90;37.70;;;;;;4974394;28;20182;-68
2022/10/23 07:27:06;;;;;;;684.13;635.33;;;12.10;35.00;;;;;;4974361;28;20712;-68
2022/10/23 07:29:32;;;;;;;523.83;486.70;;;12.10;37.20;;;;;;4974631;28;20209;-68
2022/10/23 07:31:59;;;;;;;311.50;290.73;;;12.20;36.70;;;;;;4974056;28;20196;-68
2022/10/23 07:34:25;;;;;;;379.77;356.87;;;12.40;36.10;;;;;;4974225;28;20422;-68
2022/10/23 07:36:53;;;;;;;765.97;710.90;;;12.60;36.40;;;;;;4963073;28;20465;-68
2022/10/23 07:39:19;;;;;;;747.63;694.57;;;12.70;34.10;;;;;;4955202;28;20431;-68
2022/10/23 07:41:45;;;;;;;594.47;553.07;;;12.70;34.40;;;;;;4954555;28;20814;-67
2022/10/23 07:44:10;;;;;;;554.87;514.43;;;12.80;33.50;;;;;;4961327;28;20432;-68
2022/10/23 07:46:36;;;;;;;891.93;829.93;;;12.90;34.80;;;;;;4973875;28;20184;-68
2022/10/23 07:49:01;;;;;;;867.57;803.93;;;13.00;33.60;;;;;;4973913;28;20279;-68
2022/10/23 07:51:27;;;;;;;783.17;725.97;;;13.10;33.70;;;;;;4974072;28;20438;-69
2022/10/23 07:53:52;;;;;;;529.60;489.63;;;13.20;33.10;;;;;;4963034;28;20196;-69
2022/10/23 07:56:23;;;;;;;837.77;777.43;;;13.30;30.90;;;;;;4955331;28;20184;-68
2022/10/23 07:58:52;;;;;;;898.10;832.23;;;13.50;31.20;;;;;;4960584;28;20670;-69
2022/10/23 08:01:23;;;;;;;829.67;771.23;;;13.60;30.10;;;;;;4975202;28;20804;-69
2022/10/23 08:03:48;;;;;;;680.40;629.17;;;13.50;30.30;;;;;;4974226;28;20423;-69
2022/10/23 08:06:14;;;;;;;779.90;721.93;;;13.60;29.50;;;;;;4973596;28;20432;-69
2022/10/23 08:08:39;;;;;;;673.47;625.33;;;13.70;29.90;;;;;;4974106;28;20296;-68
2022/10/23 08:11:05;;;;;;;475.10;438.87;;;13.80;29.40;;;;;;4971798;28;20279;-68
2022/10/23 08:13:31;;;;;;;295.07;275.50;;;13.90;29.40;;;;;;4973563;28;20188;-67
2022/10/23 08:15:57;;;;;;;465.70;429.90;;;13.90;28.70;;;;;;4973219;28;20787;-67
2022/10/23 08:18:23;;;;;;;670.23;620.03;;;14.00;28.50;;;;;;4973497;28;20185;-67
2022/10/23 08:20:51;;;;;;;829.87;772.67;;;14.10;27.70;;;;;;4972564;28;20464;-69
2022/10/23 08:23:18;;;;;;;588.83;546.77;;;14.10;27.60;;;;;;4968421;28;20335;-69
2022/10/23 08:25:44;;;;;;;757.07;698.43;;;14.10;27.40;;;;;;4968961;28;20439;-68
2022/10/23 08:28:10;;;;;;;824.73;765.67;;;14.00;27.80;;;;;;4964372;28;20551;-66
2022/10/23 08:30:36;;;;;;;773.07;717.80;;;14.00;27.80;;;;;;4969784;28;20580;-67
2022/10/23 08:33:03;;;;;;;561.57;519.73;;;14.10;26.90;;;;;;4963810;28;20189;-68
2022/10/23 08:35:28;;;;;;;651.87;604.90;;;14.20;27.50;;;;;;4968775;28;20945;-67
2022/10/23 08:37:54;;;;;;;711.77;660.83;;;14.30;26.70;;;;;;4968570;28;20516;-68
2022/10/23 08:40:24;;;;;;;502.93;467.33;;;14.40;27.40;;;;;;4969778;28;20197;-68
2022/10/23 08:43:10;;;;;;;398.37;368.80;;;14.50;26.50;;;;;;4967581;28;20189;-67
2022/10/23 08:45:43;;;;;;;915.80;848.47;;;14.70;25.90;;;;;;4969122;28;20424;-67
2022/10/23 08:48:21;;;;;;;851.07;789.40;;;14.80;25.90;;;;;;4969219;28;20862;-68
2022/10/23 08:50:54;;;;;;;613.43;570.37;;;15.00;26.00;;;;;;4968096;28;20540;-67
2022/10/23 08:53:53;;;;;;;373.33;345.07;;;15.20;26.20;;;;;;4968666;28;20786;-68
2022/10/23 08:56:23;;;;;;;941.33;871.60;;;15.30;23.60;;;;;;4949662;28;20429;-67
2022/10/23 08:59:19;;;;;;;361.30;332.90;;;15.30;23.80;;;;;;4969573;28;20564;-67
2022/10/23 09:02:23;;;;;;;384.73;356.53;;;15.30;24.30;;;;;;4967807;28;20527;-68
2022/10/23 09:04:51;;;;;;;767.10;709.90;;;15.20;24.50;;;;;;4962376;28;20501;-68
2022/10/23 09:07:26;;;;;;;549.03;508.10;;;15.20;24.80;;;;;;4968725;28;20424;-67
2022/10/23 09:10:10;;;;;;;789.23;732.77;;;15.30;24.90;;;;;;4969711;28;20805;-68
2022/10/23 09:12:35;;;;;;;515.00;477.10;;;15.30;24.10;;;;;;4968540;28;20429;-69
2022/10/23 09:15:03;;;;;;;302.03;280.80;;;15.40;24.30;;;;;;4969327;28;20443;-68
2022/10/23 09:17:33;;;;;;;537.07;496.83;;;15.50;24.20;;;;;;4967465;28;20761;-67
2022/10/23 09:20:23;;;;;;;421.63;389.77;;;15.60;23.50;;;;;;4968224;28;20500;-68
2022/10/23 09:23:11;;;;;;;532.57;495.20;;;15.60;24.40;;;;;;4971166;28;20829;-67
2022/10/23 09:25:39;;;;;;;897.23;833.23;;;15.60;24.40;;;;;;4971848;28;20484;-67
2022/10/23 09:28:05;;;;;;;316.50;292.23;;;15.60;24.80;;;;;;4965689;28;20497;-68
2022/10/23 09:30:37;;;;;;;480.47;444.13;;;15.80;24.40;;;;;;4965587;28;20463;-66
2022/10/23 09:33:16;;;;;;;572.30;529.20;;;16.00;24.30;;;;;;4974546;28;20464;-67
2022/10/23 09:36:00;;;;;;;359.93;333.07;;;16.10;23.30;;;;;;4966740;28;20425;-66
2022/10/23 09:38:30;;;;;;;669.90;620.93;;;16.10;23.40;;;;;;4970921;28;20436;-67
2022/10/23 09:40:59;;;;;;;769.67;713.17;;;16.20;22.60;;;;;;4974418;28;20436;-67
2022/10/23 09:43:26;;;;;;;802.80;748.27;;;16.30;22.70;;;;;;4974721;28;20532;-67
2022/10/23 09:46:01;;;;;;;770.83;713.77;;;16.30;22.70;;;;;;4974997;28;20470;-67
2022/10/23 09:48:27;;;;;;;686.17;637.27;;;16.40;22.80;;;;;;4973475;28;21714;-67
2022/10/23 09:51:01;;;;;;;262.53;242.23;;;16.50;22.60;;;;;;4980860;28;117455;-67
2022/10/23 09:53:31;;;;;;;663.73;612.80;;;16.70;21.60;;;;;;4964997;28;20436;-64
2022/10/23 09:56:02;;;;;;;890.53;825.53;;;16.90;21.50;;;;;;4956600;28;20757;-67
2022/10/23 09:58:37;;;;;;;865.70;803.70;;;17.00;21.60;;;;;;4968289;28;20436;-68
2022/10/23 10:01:03;;;;;;;522.93;481.60;;;17.00;20.40;;;;;;4975740;28;20502;-67
2022/10/23 10:03:29;;;;;;;613.00;566.33;;;17.20;20.50;;;;;;4975898;28;20413;-66
2022/10/23 10:06:03;;;;;;;662.20;611.53;;;17.30;20.20;;;;;;4975455;28;20936;-66
2022/10/23 10:08:47;;;;;;;835.23;773.23;;;17.40;20.10;;;;;;4975548;28;20208;-67
2022/10/23 10:11:41;;;;;;;796.97;737.87;;;17.30;20.20;;;;;;4975202;28;20440;-66
2022/10/23 10:14:40;;;;;;;816.37;754.97;;;17.40;20.20;;;;;;4975923;28;20515;-67
2022/10/23 10:17:16;;;;;;;819.73;757.53;;;17.50;20.00;;;;;;4976389;28;20495;-69
2022/10/23 10:20:00;;;;;;;367.83;336.77;;;17.70;19.70;;;;;;4974968;28;20499;-67
2022/10/23 10:22:44;;;;;;;798.73;740.70;;;17.90;19.70;;;;;;4975021;28;20420;-68
2022/10/23 10:25:32;;;;;;;836.80;772.60;;;18.10;17.90;;;;;;4975192;28;20774;-67
2022/10/23 10:28:12;;;;;;;622.50;573.80;;;18.30;18.30;;;;;;4975881;28;20439;-68
2022/10/23 10:31:09;;;;;;;442.10;411.33;;;18.50;17.40;;;;;;4975916;28;20440;-68
2022/10/23 10:34:01;;;;;;;480.73;435.40;;;18.80;16.20;;;;;;4974546;28;20432;-68
2022/10/23 10:36:27;;;;;;;737.57;679.97;;;18.80;15.70;;;;;;4976038;28;20479;-68
2022/10/23 10:38:59;;;;;;;619.73;558.57;;;18.80;15.70;;;;;;4976096;28;20789;-68
2022/10/23 10:41:54;;;;;;;768.07;709.70;;;18.80;15.70;;;;;;4975529;28;20228;-69
2022/10/23 10:44:44;;;;;;;918.97;826.97;;;18.90;15.80;;;;;;4975360;28;20494;-69
2022/10/23 10:47:21;;;;;;;788.10;725.00;;;18.90;15.80;;;;;;4975140;28;20482;-69
2022/10/23 10:50:12;;;;;;;511.70;460.77;;;19.00;15.80;;;;;;4973268;28;20523;-69
2022/10/23 10:53:02;;;;;;;724.67;669.07;;;19.00;14.40;;;;;;4974769;28;20818;-69
2022/10/23 10:55:32;;;;;;;895.30;806.17;;;19.10;15.30;;;;;;4960165;28;20428;-69
2022/10/23 10:58:29;;;;;;;1117.73;997.53;;;19.30;14.90;;;;;;4975071;28;20491;-69
2022/10/23 11:00:58;;;;;;;712.20;656.70;;;19.40;15.10;;;;;;4974439;28;20548;-68
2022/10/23 11:03:45;;;;;;;909.07;816.43;;;19.60;14.20;;;;;;4974629;28;20408;-69
2022/10/23 11:06:17;;;;;;;1088.23;965.87;;;19.70;13.60;;;;;;4974693;28;20519;-69
2022/10/23 11:08:43;;;;;;;862.67;780.07;;;19.70;13.50;;;;;;4974659;28;20467;-68
2022/10/23 11:11:23;;;;;;;1205.93;999.90;;;19.80;13.60;;;;;;4974045;28;20815;-68
2022/10/23 11:13:50;;;;;;;1201.97;999.90;;;19.80;13.60;;;;;;4974574;28;20184;-68
2022/10/23 11:16:34;;;;;;;841.77;760.67;;;19.90;13.50;;;;;;4973291;28;20934;-70
2022/10/23 11:19:07;;;;;;;636.03;582.67;;;20.00;13.40;;;;;;4974505;28;20643;-70
2022/10/23 11:21:42;;;;;;;1250.90;999.90;;;20.00;12.20;;;;;;4973908;28;20495;-68
2022/10/23 11:24:19;;;;;;;1340.03;999.90;;;20.10;12.20;;;;;;4972954;28;20428;-69
2022/10/23 11:27:21;;;;;;;876.47;803.33;;;20.20;12.30;;;;;;4974670;28;20423;-68
2022/10/23 11:30:01;;;;;;;1214.60;999.90;;;20.30;13.90;;;;;;4973902;28;20503;-67
2022/10/23 11:32:47;;;;;;;626.17;573.83;;;20.50;12.60;;;;;;4973659;28;20435;-67
2022/10/23 11:35:33;;;;;;;1163.90;999.90;;;20.80;13.10;;;;;;4973928;28;20432;-67
2022/10/23 11:38:06;;;;;;;1030.67;930.50;;;20.70;12.60;;;;;;4953487;28;20420;-69
2022/10/23 11:40:32;;;;;;;891.97;810.57;;;20.90;12.30;;;;;;4972539;28;20456;-67
2022/10/23 11:42:58;;;;;;;1103.37;991.43;;;21.20;11.70;;;;;;4972551;28;20901;-68
2022/10/23 11:45:37;;;;;;;779.17;702.60;;;21.50;10.60;;;;;;4973053;28;20197;-69
2022/10/23 11:48:03;;;;;;;878.63;788.80;;;21.70;10.20;;;;;;4973865;28;20188;-67
2022/10/23 11:50:45;;;;;;;1093.47;984.13;;;21.80;10.90;;;;;;4973590;28;20464;-69
2022/10/23 11:53:46;;;;;;;1085.67;980.97;;;21.80;10.70;;;;;;4973302;28;20432;-69
2022/10/23 11:56:11;;;;;;;956.53;863.30;;;22.00;10.80;;;;;;4922606;29;20805;-68
2022/10/23 11:58:41;;;;;;;1058.13;958.37;;;22.10;10.50;;;;;;4968087;28;20436;-67
2022/10/23 12:01:28;;;;;;;912.27;836.97;;;22.30;10.10;;;;;;4973009;28;20209;-69
2022/10/23 12:04:12;;;;;;;1144.53;999.90;;;22.50;9.20;;;;;;4973421;28;20416;-68
2022/10/23 12:06:45;;;;;;;942.97;859.43;;;22.60;8.40;;;;;;4962376;28;20463;-68
2022/10/23 12:09:22;;;;;;;762.67;693.30;;;22.40;9.20;;;;;;4954323;28;20604;-68
2022/10/23 12:12:00;;;;;;;933.33;841.80;;;22.40;9.20;;;;;;4960765;28;20539;-68
2022/10/23 12:14:36;;;;;;;1158.83;999.90;;;22.40;9.00;;;;;;4970906;28;20455;-68
2022/10/23 12:17:17;;;;;;;979.07;904.97;;;22.40;9.20;;;;;;4973940;28;20408;-70
2022/10/23 12:19:47;;;;;;;1074.17;974.03;;;22.50;9.30;;;;;;4975539;28;20413;-67
2022/10/23 12:22:13;;;;;;;802.03;728.60;;;22.30;13.20;;;;;;4973566;28;20432;-67
2022/10/23 12:25:10;;;;;;;1061.67;960.90;;;22.40;9.20;;;;;;4956332;28;20829;-68
2022/10/23 12:28:02;;;;;;;724.57;653.73;;;22.50;9.30;;;;;;4954237;28;20178;-67